Cessnock, New South Wales

10:15 AM AEST on July 28, 2016 (GMT +1000)
mySmart Farm - Hunter Valley | | Change Station

Elev 440 ft 32.82 °S, 151.32 °E | Updated 14 minutes ago

Clear
Clear
54.2 °F
Feels Like 54.2 °F
N
4.0
Wind Variable Wind from SE
Gusts 9.0 mph

Today
High -- | Low -- °F
--% Chance of Precip.
Yesterday
High -- | Low -- °F
Precip. -- in
Pressure 30.27 in
Visibility -9999.0 miles
Clouds
Dew Point 44 °F
Humidity 69%
Rainfall 0.00 in
Snow Depth Not available.
6:48 AM 5:14 PM
Last Quarter, 38% visible
METAR YWLM 280000Z 29018KT CAVOK 14/05 Q1025 NOSIG
Pressure 30.27 in
Visibility -9999.0 miles
Clouds
Dew Point 44 °F
Humidity 69%
Rainfall 0.00 in
Snow Depth Not available.
6:48 AM 5:14 PM
Last Quarter, 38% visible
METAR YWLM 280000Z 29018KT CAVOK 14/05 Q1025 NOSIG

10-Day Weather Forecast

Almanac

Astronomy

Jul. 28, 2016 Rise Set
Actual Time
Civil Twilight
Nautical Twilight
Astronomical Twilight
Moon
Length of Visible Light
Length of Day
Tomorrow will be .
, % of the Moon is Illuminated

Today's Extremes

Country Highs Country Lows

Community

WunderPhotos

Upload Photos

1,927,974 photos uploaded!

WunderBlog® & News

Nearby

Air Quality

  Air Quality AQ Index Pollutant
Not available.

Snow Depth

Station Depth Elevation

Earthquake Activity

City Distance Mag. Time & Date
Minimum magnitude displayed is 2.5.

Coastal Water Temperatures

Place Temperature

Stations

Nearby Weather Stations

Station Location Temp. Windchill Dew Point Humidity Wind Precip. Elev Updated Type